CheckWX is a tool to help pilots better visualize weather data.  It is not intended as a substitute for an official pre-flight weather briefing.

20:09:34 UTC

KHDE METAR
Brewster Field Airport
Holdrege, Nebraska, USA
Current

35 mins ago

KHDE 231935Z AUTO 06004KT 10SM CLR 17/00 A3009 RMK AO2 T01660003
Observed
Apr-23 @ 19:35 UTC
Wind
  • 060° at 4 KTS
Visibility
10 SM
Flight Rules
VFR
Cloud Levels
  • Clear skies
Temperature
17°C / 63°F
Dewpoint
C / 32°F
Humidity
32%
Altimeter
30.09" Hg
Pressure
1018.92 hPa
Previous

55 mins ago

KHDE 231915Z AUTO 00000KT 10SM CLR 16/00 A3010 RMK AO2 T01621005
Observed
Apr-23 @ 19:15 UTC
Visibility
10 SM
Flight Rules
VFR
Cloud Levels
  • Clear skies
Temperature
16°C / 61°F
Dewpoint
-1°C / 30°F
Humidity
31%
Altimeter
30.1" Hg
Pressure
1019.32 hPa
Previous

1 hour ago

KHDE 231855Z AUTO 08005KT 10SM CLR 16/01 A3011 RMK AO2 T01640005
Observed
Apr-23 @ 18:55 UTC
Wind
  • 080° at 5 KTS
Visibility
10 SM
Flight Rules
VFR
Cloud Levels
  • Clear skies
Temperature
16°C / 61°F
Dewpoint
C / 34°F
Humidity
36%
Altimeter
30.11" Hg
Pressure
1019.62 hPa